Country
Station

 

Weather  for  Sault Ste Marie, Ont.  -  Canada    Canada

  
31 °C (88 °F)
    
 
 

Current METAR for Sault Ste Marie, Ont. is :

CYAM 191700Z 30012KT 20SM FEW040 FEW090 FEW160 FEW220 31/21 A2972 RMK CU1AC1AS1CI1 CU TR AC TR AS TR CI TR SLP062 DENSITY ALT 2800FT

 

This is a report for Sault Ste Marie, Ont. - Canada.
 
The report was made 22 minutes ago, at 17:00 UTC .
The wind was blowing at a speed of 6.2 meters per second (13.8 miles per hour) from west/northwest (300°).
 
The temperature was 31 °C (88 °F), with a dew-point at 21 °C (70 °F).
The temperature felt like 34 °C (93 °F).
 
The atmospheric pressure was 1006 hPa (29.72 inHg).
The relative humidity was 55.4%.
 
There were a few clouds at a height of 1219 meters (4000 feet), a few clouds at a height of 2743 meters (9000 feet) and a few clouds at a height of 4877 meters (16000 feet).
 
The overall visibility was 32.2 kilometers (20.0 miles).
 

 
 
 
 

Country :   A   B   C   D   E   F   G   H   I   J   K   L   M   N   O   P   Q   R   S   T   U   V   W   Y   Z

 

Site Info  |  Disclaimer  |  Credits  |  Privacy
Contact us  |  Add to favorites
© 2013-2019 METARs - All rights reserved